sensor_id;sensor_type;location;lat;lon;timestamp;P1;durP1;ratioP1;P2;durP2;ratioP2
21084;SDS011;72320;50.082;20.000;2023-12-20T00:00:19;5.70;;;3.30;;
21084;SDS011;72320;50.082;20.000;2023-12-20T00:02:45;6.80;;;2.90;;
21084;SDS011;72320;50.082;20.000;2023-12-20T00:05:15;7.10;;;3.40;;
21084;SDS011;72320;50.082;20.000;2023-12-20T00:07:41;5.10;;;3.30;;
21084;SDS011;72320;50.082;20.000;2023-12-20T00:10:07;6.60;;;3.70;;
21084;SDS011;72320;50.082;20.000;2023-12-20T00:12:33;6.00;;;3.20;;
21084;SDS011;72320;50.082;20.000;2023-12-20T00:14:59;6.60;;;3.30;;
21084;SDS011;72320;50.082;20.000;2023-12-20T00:17:26;7.40;;;3.50;;
21084;SDS011;72320;50.082;20.000;2023-12-20T00:19:52;7.80;;;4.40;;
21084;SDS011;72320;50.082;20.000;2023-12-20T00:22:18;5.00;;;3.10;;
21084;SDS011;72320;50.082;20.000;2023-12-20T00:24:43;5.80;;;3.20;;
21084;SDS011;72320;50.082;20.000;2023-12-20T00:27:09;6.90;;;3.50;;
21084;SDS011;72320;50.082;20.000;2023-12-20T00:29:35;5.80;;;3.70;;
21084;SDS011;72320;50.082;20.000;2023-12-20T00:32:01;10.20;;;3.30;;
21084;SDS011;72320;50.082;20.000;2023-12-20T00:34:27;8.80;;;3.90;;
21084;SDS011;72320;50.082;20.000;2023-12-20T00:36:53;5.40;;;2.90;;
21084;SDS011;72320;50.082;20.000;2023-12-20T00:39:20;5.70;;;3.40;;
21084;SDS011;72320;50.082;20.000;2023-12-20T00:41:49;7.70;;;3.40;;
21084;SDS011;72320;50.082;20.000;2023-12-20T00:44:18;6.40;;;3.50;;
21084;SDS011;72320;50.082;20.000;2023-12-20T00:46:48;6.40;;;3.00;;
21084;SDS011;72320;50.082;20.000;2023-12-20T00:49:17;8.50;;;3.10;;
21084;SDS011;72320;50.082;20.000;2023-12-20T00:51:45;6.30;;;2.80;;
21084;SDS011;72320;50.082;20.000;2023-12-20T00:54:12;8.20;;;3.70;;
21084;SDS011;72320;50.082;20.000;2023-12-20T00:56:39;6.10;;;2.80;;
21084;SDS011;72320;50.082;20.000;2023-12-20T00:59:06;7.80;;;3.00;;
21084;SDS011;72320;50.082;20.000;2023-12-20T01:01:33;6.60;;;3.20;;
21084;SDS011;72320;50.082;20.000;2023-12-20T01:03:59;6.00;;;3.20;;
21084;SDS011;72320;50.082;20.000;2023-12-20T01:06:25;7.30;;;3.20;;
21084;SDS011;72320;50.082;20.000;2023-12-20T01:08:51;5.60;;;2.90;;
21084;SDS011;72320;50.082;20.000;2023-12-20T01:11:17;6.90;;;3.20;;
21084;SDS011;72320;50.082;20.000;2023-12-20T01:13:43;7.40;;;3.20;;
21084;SDS011;72320;50.082;20.000;2023-12-20T01:16:12;5.20;;;2.60;;
21084;SDS011;72320;50.082;20.000;2023-12-20T01:18:38;6.20;;;3.00;;
21084;SDS011;72320;50.082;20.000;2023-12-20T01:21:05;6.00;;;3.40;;
21084;SDS011;72320;50.082;20.000;2023-12-20T01:23:32;8.40;;;3.50;;
21084;SDS011;72320;50.082;20.000;2023-12-20T01:25:58;4.10;;;2.90;;
21084;SDS011;72320;50.082;20.000;2023-12-20T01:28:28;4.30;;;2.90;;
21084;SDS011;72320;50.082;20.000;2023-12-20T01:30:54;7.00;;;3.80;;
21084;SDS011;72320;50.082;20.000;2023-12-20T01:33:19;5.20;;;3.00;;
21084;SDS011;72320;50.082;20.000;2023-12-20T01:35:45;4.40;;;2.70;;
21084;SDS011;72320;50.082;20.000;2023-12-20T01:38:11;8.90;;;3.00;;
21084;SDS011;72320;50.082;20.000;2023-12-20T01:40:38;8.30;;;3.40;;
21084;SDS011;72320;50.082;20.000;2023-12-20T01:43:08;5.10;;;3.00;;
21084;SDS011;72320;50.082;20.000;2023-12-20T01:45:38;6.90;;;3.30;;
21084;SDS011;72320;50.082;20.000;2023-12-20T01:48:05;7.20;;;3.40;;
21084;SDS011;72320;50.082;20.000;2023-12-20T01:50:35;8.20;;;3.80;;
21084;SDS011;72320;50.082;20.000;2023-12-20T01:53:05;7.20;;;3.60;;
21084;SDS011;72320;50.082;20.000;2023-12-20T01:55:36;6.10;;;3.30;;
21084;SDS011;72320;50.082;20.000;2023-12-20T01:58:08;5.20;;;3.10;;
21084;SDS011;72320;50.082;20.000;2023-12-20T02:00:54;6.20;;;3.30;;
21084;SDS011;72320;50.082;20.000;2023-12-20T02:03:25;9.00;;;3.60;;
21084;SDS011;72320;50.082;20.000;2023-12-20T02:06:00;7.20;;;3.40;;
21084;SDS011;72320;50.082;20.000;2023-12-20T02:08:40;6.40;;;3.10;;
21084;SDS011;72320;50.082;20.000;2023-12-20T02:11:06;5.60;;;3.10;;
21084;SDS011;72320;50.082;20.000;2023-12-20T02:13:32;6.50;;;3.00;;
21084;SDS011;72320;50.082;20.000;2023-12-20T02:15:58;6.40;;;3.40;;
21084;SDS011;72320;50.082;20.000;2023-12-20T02:18:24;6.20;;;3.30;;
21084;SDS011;72320;50.082;20.000;2023-12-20T02:20:50;4.40;;;2.80;;
21084;SDS011;72320;50.082;20.000;2023-12-20T02:23:17;5.20;;;3.20;;
21084;SDS011;72320;50.082;20.000;2023-12-20T02:25:43;4.50;;;2.90;;
21084;SDS011;72320;50.082;20.000;2023-12-20T02:28:09;4.20;;;3.00;;
21084;SDS011;72320;50.082;20.000;2023-12-20T02:30:35;5.60;;;2.70;;
21084;SDS011;72320;50.082;20.000;2023-12-20T02:33:03;5.90;;;3.20;;
21084;SDS011;72320;50.082;20.000;2023-12-20T02:35:37;3.50;;;2.80;;
21084;SDS011;72320;50.082;20.000;2023-12-20T02:38:03;4.60;;;3.00;;
21084;SDS011;72320;50.082;20.000;2023-12-20T02:40:29;5.50;;;3.00;;
21084;SDS011;72320;50.082;20.000;2023-12-20T02:42:55;3.60;;;2.90;;
21084;SDS011;72320;50.082;20.000;2023-12-20T02:45:20;9.70;;;2.70;;
21084;SDS011;72320;50.082;20.000;2023-12-20T02:47:46;8.90;;;3.20;;
21084;SDS011;72320;50.082;20.000;2023-12-20T02:50:12;5.60;;;2.80;;
21084;SDS011;72320;50.082;20.000;2023-12-20T02:52:38;5.40;;;3.20;;
21084;SDS011;72320;50.082;20.000;2023-12-20T02:55:04;7.40;;;3.00;;
21084;SDS011;72320;50.082;20.000;2023-12-20T02:57:30;7.20;;;2.60;;
21084;SDS011;72320;50.082;20.000;2023-12-20T02:59:57;4.70;;;2.50;;
21084;SDS011;72320;50.082;20.000;2023-12-20T03:02:23;5.00;;;2.80;;
21084;SDS011;72320;50.082;20.000;2023-12-20T03:04:49;3.50;;;2.10;;
21084;SDS011;72320;50.082;20.000;2023-12-20T03:07:15;3.30;;;2.20;;
21084;SDS011;72320;50.082;20.000;2023-12-20T03:09:41;3.10;;;2.20;;
21084;SDS011;72320;50.082;20.000;2023-12-20T03:12:08;3.20;;;2.30;;
21084;SDS011;72320;50.082;20.000;2023-12-20T03:14:34;3.50;;;2.00;;
21084;SDS011;72320;50.082;20.000;2023-12-20T03:17:01;3.30;;;2.20;;
21084;SDS011;72320;50.082;20.000;2023-12-20T03:19:27;2.30;;;1.60;;
21084;SDS011;72320;50.082;20.000;2023-12-20T03:21:54;3.30;;;2.30;;
21084;SDS011;72320;50.082;20.000;2023-12-20T03:24:21;2.60;;;2.40;;
21084;SDS011;72320;50.082;20.000;2023-12-20T03:26:47;2.10;;;1.80;;
21084;SDS011;72320;50.082;20.000;2023-12-20T03:29:16;1.90;;;1.70;;
21084;SDS011;72320;50.082;20.000;2023-12-20T03:31:43;3.40;;;2.40;;
21084;SDS011;72320;50.082;20.000;2023-12-20T03:34:09;3.20;;;2.20;;
21084;SDS011;72320;50.082;20.000;2023-12-20T03:36:36;2.20;;;1.90;;
21084;SDS011;72320;50.082;20.000;2023-12-20T03:39:03;2.60;;;2.00;;
21084;SDS011;72320;50.082;20.000;2023-12-20T03:41:35;2.90;;;2.10;;
21084;SDS011;72320;50.082;20.000;2023-12-20T03:44:01;2.50;;;2.10;;
21084;SDS011;72320;50.082;20.000;2023-12-20T03:46:27;1.90;;;1.80;;
21084;SDS011;72320;50.082;20.000;2023-12-20T03:48:53;2.20;;;1.80;;
21084;SDS011;72320;50.082;20.000;2023-12-20T03:51:19;2.00;;;1.90;;
21084;SDS011;72320;50.082;20.000;2023-12-20T03:53:46;4.20;;;1.90;;
21084;SDS011;72320;50.082;20.000;2023-12-20T03:56:14;2.00;;;1.80;;
21084;SDS011;72320;50.082;20.000;2023-12-20T03:58:40;4.20;;;2.20;;
21084;SDS011;72320;50.082;20.000;2023-12-20T04:54:08;3.00;;;2.30;;
21084;SDS011;72320;50.082;20.000;2023-12-20T04:56:35;3.20;;;2.00;;
21084;SDS011;72320;50.082;20.000;2023-12-20T04:59:01;2.60;;;2.00;;
21084;SDS011;72320;50.082;20.000;2023-12-20T05:01:27;2.40;;;2.00;;
21084;SDS011;72320;50.082;20.000;2023-12-20T05:03:53;3.20;;;1.70;;
21084;SDS011;72320;50.082;20.000;2023-12-20T05:06:19;4.30;;;2.00;;
21084;SDS011;72320;50.082;20.000;2023-12-20T05:08:45;2.10;;;1.80;;
21084;SDS011;72320;50.082;20.000;2023-12-20T05:11:11;3.10;;;1.90;;
21084;SDS011;72320;50.082;20.000;2023-12-20T05:13:40;2.40;;;1.80;;
21084;SDS011;72320;50.082;20.000;2023-12-20T05:16:08;6.50;;;2.00;;
21084;SDS011;72320;50.082;20.000;2023-12-20T05:18:36;2.30;;;1.80;;
21084;SDS011;72320;50.082;20.000;2023-12-20T05:21:02;2.00;;;1.70;;
21084;SDS011;72320;50.082;20.000;2023-12-20T05:23:29;2.90;;;2.00;;
21084;SDS011;72320;50.082;20.000;2023-12-20T05:25:55;2.30;;;1.50;;
21084;SDS011;72320;50.082;20.000;2023-12-20T05:28:22;2.10;;;1.80;;
21084;SDS011;72320;50.082;20.000;2023-12-20T05:30:48;1.80;;;1.60;;
21084;SDS011;72320;50.082;20.000;2023-12-20T05:33:15;1.70;;;1.50;;
21084;SDS011;72320;50.082;20.000;2023-12-20T05:35:41;2.10;;;1.70;;
21084;SDS011;72320;50.082;20.000;2023-12-20T05:38:07;1.80;;;1.40;;
21084;SDS011;72320;50.082;20.000;2023-12-20T05:40:33;1.60;;;1.50;;
21084;SDS011;72320;50.082;20.000;2023-12-20T05:42:58;2.10;;;1.80;;
21084;SDS011;72320;50.082;20.000;2023-12-20T05:45:25;1.90;;;1.70;;
21084;SDS011;72320;50.082;20.000;2023-12-20T05:47:51;1.70;;;1.40;;
21084;SDS011;72320;50.082;20.000;2023-12-20T05:50:17;2.40;;;2.00;;
21084;SDS011;72320;50.082;20.000;2023-12-20T05:52:42;2.60;;;1.90;;
21084;SDS011;72320;50.082;20.000;2023-12-20T05:55:08;1.70;;;1.60;;
21084;SDS011;72320;50.082;20.000;2023-12-20T05:57:35;1.70;;;1.60;;
21084;SDS011;72320;50.082;20.000;2023-12-20T06:00:00;1.50;;;1.40;;
21084;SDS011;72320;50.082;20.000;2023-12-20T06:02:26;2.20;;;1.80;;
21084;SDS011;72320;50.082;20.000;2023-12-20T06:04:52;1.90;;;1.80;;
21084;SDS011;72320;50.082;20.000;2023-12-20T06:07:19;1.90;;;1.50;;
21084;SDS011;72320;50.082;20.000;2023-12-20T06:09:44;2.50;;;1.80;;
21084;SDS011;72320;50.082;20.000;2023-12-20T06:12:10;2.40;;;1.80;;
21084;SDS011;72320;50.082;20.000;2023-12-20T06:14:36;2.20;;;1.60;;
21084;SDS011;72320;50.082;20.000;2023-12-20T06:17:02;2.30;;;1.70;;
21084;SDS011;72320;50.082;20.000;2023-12-20T06:19:29;2.20;;;1.80;;
21084;SDS011;72320;50.082;20.000;2023-12-20T06:21:55;2.80;;;2.00;;
21084;SDS011;72320;50.082;20.000;2023-12-20T06:24:21;2.70;;;1.90;;
21084;SDS011;72320;50.082;20.000;2023-12-20T06:26:47;2.00;;;1.60;;
21084;SDS011;72320;50.082;20.000;2023-12-20T06:29:14;2.70;;;2.00;;
21084;SDS011;72320;50.082;20.000;2023-12-20T06:31:40;2.30;;;1.90;;
21084;SDS011;72320;50.082;20.000;2023-12-20T06:34:06;2.20;;;2.00;;
21084;SDS011;72320;50.082;20.000;2023-12-20T06:36:33;2.80;;;1.80;;
21084;SDS011;72320;50.082;20.000;2023-12-20T06:39:01;2.30;;;1.90;;
21084;SDS011;72320;50.082;20.000;2023-12-20T06:41:28;3.00;;;2.50;;
21084;SDS011;72320;50.082;20.000;2023-12-20T06:43:56;2.00;;;1.80;;
21084;SDS011;72320;50.082;20.000;2023-12-20T06:46:23;2.70;;;2.30;;
21084;SDS011;72320;50.082;20.000;2023-12-20T06:48:50;2.30;;;2.10;;
21084;SDS011;72320;50.082;20.000;2023-12-20T06:51:16;2.50;;;2.20;;
21084;SDS011;72320;50.082;20.000;2023-12-20T06:53:45;2.20;;;2.00;;
21084;SDS011;72320;50.082;20.000;2023-12-20T06:56:11;2.80;;;2.30;;
21084;SDS011;72320;50.082;20.000;2023-12-20T06:58:43;2.70;;;2.30;;
21084;SDS011;72320;50.082;20.000;2023-12-20T07:01:13;2.80;;;2.30;;
21084;SDS011;72320;50.082;20.000;2023-12-20T07:03:40;4.50;;;2.70;;
21084;SDS011;72320;50.082;20.000;2023-12-20T07:06:07;6.60;;;2.80;;
21084;SDS011;72320;50.082;20.000;2023-12-20T07:08:33;4.40;;;2.90;;
21084;SDS011;72320;50.082;20.000;2023-12-20T07:10:59;4.20;;;2.90;;
21084;SDS011;72320;50.082;20.000;2023-12-20T07:13:25;4.40;;;2.40;;
21084;SDS011;72320;50.082;20.000;2023-12-20T07:15:52;4.20;;;2.40;;
21084;SDS011;72320;50.082;20.000;2023-12-20T07:18:18;2.90;;;2.70;;
21084;SDS011;72320;50.082;20.000;2023-12-20T07:21:00;6.30;;;2.70;;
21084;SDS011;72320;50.082;20.000;2023-12-20T07:23:27;2.60;;;2.40;;
21084;SDS011;72320;50.082;20.000;2023-12-20T07:25:55;2.60;;;2.40;;
21084;SDS011;72320;50.082;20.000;2023-12-20T07:28:23;3.20;;;2.50;;
21084;SDS011;72320;50.082;20.000;2023-12-20T07:30:50;3.30;;;2.60;;
21084;SDS011;72320;50.082;20.000;2023-12-20T07:33:17;4.10;;;2.80;;
21084;SDS011;72320;50.082;20.000;2023-12-20T07:35:43;3.00;;;2.50;;
21084;SDS011;72320;50.082;20.000;2023-12-20T07:38:10;2.40;;;2.20;;
21084;SDS011;72320;50.082;20.000;2023-12-20T07:40:37;4.60;;;3.10;;
21084;SDS011;72320;50.082;20.000;2023-12-20T07:43:04;3.70;;;2.60;;
21084;SDS011;72320;50.082;20.000;2023-12-20T07:45:30;2.50;;;2.30;;
21084;SDS011;72320;50.082;20.000;2023-12-20T07:47:56;2.80;;;2.60;;
21084;SDS011;72320;50.082;20.000;2023-12-20T07:50:22;2.80;;;2.60;;
21084;SDS011;72320;50.082;20.000;2023-12-20T07:52:48;2.80;;;2.30;;
21084;SDS011;72320;50.082;20.000;2023-12-20T07:55:14;2.60;;;2.20;;
21084;SDS011;72320;50.082;20.000;2023-12-20T07:57:40;2.90;;;2.60;;
21084;SDS011;72320;50.082;20.000;2023-12-20T08:00:06;4.20;;;2.70;;
21084;SDS011;72320;50.082;20.000;2023-12-20T08:02:32;4.90;;;3.00;;
21084;SDS011;72320;50.082;20.000;2023-12-20T08:04:58;3.00;;;2.60;;
21084;SDS011;72320;50.082;20.000;2023-12-20T08:07:24;4.20;;;2.60;;
21084;SDS011;72320;50.082;20.000;2023-12-20T08:09:50;5.70;;;3.30;;
21084;SDS011;72320;50.082;20.000;2023-12-20T08:12:17;3.30;;;2.80;;
21084;SDS011;72320;50.082;20.000;2023-12-20T08:14:43;3.80;;;3.10;;
21084;SDS011;72320;50.082;20.000;2023-12-20T08:17:09;3.80;;;2.80;;
21084;SDS011;72320;50.082;20.000;2023-12-20T08:19:36;5.40;;;2.60;;
21084;SDS011;72320;50.082;20.000;2023-12-20T08:22:02;5.30;;;3.20;;
21084;SDS011;72320;50.082;20.000;2023-12-20T08:24:31;4.40;;;3.10;;
21084;SDS011;72320;50.082;20.000;2023-12-20T08:26:58;4.20;;;2.90;;
21084;SDS011;72320;50.082;20.000;2023-12-20T08:29:26;4.50;;;3.20;;
21084;SDS011;72320;50.082;20.000;2023-12-20T08:31:55;3.70;;;2.90;;
21084;SDS011;72320;50.082;20.000;2023-12-20T08:34:21;5.50;;;3.30;;
21084;SDS011;72320;50.082;20.000;2023-12-20T08:36:50;3.10;;;2.80;;
21084;SDS011;72320;50.082;20.000;2023-12-20T08:39:17;2.80;;;2.60;;
21084;SDS011;72320;50.082;20.000;2023-12-20T08:41:43;8.10;;;2.90;;
21084;SDS011;72320;50.082;20.000;2023-12-20T08:44:10;3.70;;;3.30;;
21084;SDS011;72320;50.082;20.000;2023-12-20T08:46:36;4.60;;;3.50;;
21084;SDS011;72320;50.082;20.000;2023-12-20T08:49:02;4.30;;;3.20;;
21084;SDS011;72320;50.082;20.000;2023-12-20T08:51:28;3.70;;;3.30;;
21084;SDS011;72320;50.082;20.000;2023-12-20T08:53:54;8.40;;;3.70;;
21084;SDS011;72320;50.082;20.000;2023-12-20T08:56:20;6.80;;;3.20;;
21084;SDS011;72320;50.082;20.000;2023-12-20T08:58:46;3.90;;;3.60;;
21084;SDS011;72320;50.082;20.000;2023-12-20T09:01:13;3.40;;;3.10;;
21084;SDS011;72320;50.082;20.000;2023-12-20T09:03:40;7.30;;;3.50;;
21084;SDS011;72320;50.082;20.000;2023-12-20T09:06:06;3.70;;;2.90;;
21084;SDS011;72320;50.082;20.000;2023-12-20T09:08:32;4.50;;;3.50;;
21084;SDS011;72320;50.082;20.000;2023-12-20T09:10:59;4.40;;;3.30;;
21084;SDS011;72320;50.082;20.000;2023-12-20T09:13:26;5.40;;;3.40;;
21084;SDS011;72320;50.082;20.000;2023-12-20T09:15:57;4.90;;;2.90;;
21084;SDS011;72320;50.082;20.000;2023-12-20T09:18:24;7.00;;;3.40;;
21084;SDS011;72320;50.082;20.000;2023-12-20T09:20:51;4.20;;;3.10;;
21084;SDS011;72320;50.082;20.000;2023-12-20T09:23:17;3.20;;;2.80;;
21084;SDS011;72320;50.082;20.000;2023-12-20T09:25:43;5.30;;;3.50;;
21084;SDS011;72320;50.082;20.000;2023-12-20T09:28:10;5.60;;;3.80;;
21084;SDS011;72320;50.082;20.000;2023-12-20T09:30:36;3.40;;;3.00;;
21084;SDS011;72320;50.082;20.000;2023-12-20T09:33:05;3.90;;;3.20;;
21084;SDS011;72320;50.082;20.000;2023-12-20T09:35:32;5.50;;;3.80;;
21084;SDS011;72320;50.082;20.000;2023-12-20T09:37:59;3.40;;;3.10;;
21084;SDS011;72320;50.082;20.000;2023-12-20T09:40:26;4.50;;;3.20;;
21084;SDS011;72320;50.082;20.000;2023-12-20T09:43:10;5.00;;;3.20;;
21084;SDS011;72320;50.082;20.000;2023-12-20T09:45:39;4.20;;;3.10;;
21084;SDS011;72320;50.082;20.000;2023-12-20T09:48:07;3.70;;;3.00;;
21084;SDS011;72320;50.082;20.000;2023-12-20T09:50:36;4.60;;;3.00;;
21084;SDS011;72320;50.082;20.000;2023-12-20T09:53:03;4.10;;;3.00;;
21084;SDS011;72320;50.082;20.000;2023-12-20T09:55:31;3.60;;;3.10;;
21084;SDS011;72320;50.082;20.000;2023-12-20T09:57:59;3.00;;;2.60;;
21084;SDS011;72320;50.082;20.000;2023-12-20T10:00:26;3.20;;;2.90;;
21084;SDS011;72320;50.082;20.000;2023-12-20T10:03:00;2.90;;;2.60;;
21084;SDS011;72320;50.082;20.000;2023-12-20T10:05:31;3.10;;;2.70;;
21084;SDS011;72320;50.082;20.000;2023-12-20T10:07:59;6.10;;;2.90;;
21084;SDS011;72320;50.082;20.000;2023-12-20T10:10:27;3.30;;;2.50;;
21084;SDS011;72320;50.082;20.000;2023-12-20T10:13:06;3.00;;;2.70;;
21084;SDS011;72320;50.082;20.000;2023-12-20T10:15:34;3.10;;;2.60;;
21084;SDS011;72320;50.082;20.000;2023-12-20T10:18:02;4.10;;;2.70;;
21084;SDS011;72320;50.082;20.000;2023-12-20T10:20:29;2.60;;;2.40;;
21084;SDS011;72320;50.082;20.000;2023-12-20T10:22:57;2.80;;;2.50;;
21084;SDS011;72320;50.082;20.000;2023-12-20T10:25:24;2.80;;;2.30;;
21084;SDS011;72320;50.082;20.000;2023-12-20T10:28:14;3.00;;;2.60;;
21084;SDS011;72320;50.082;20.000;2023-12-20T10:30:45;2.90;;;2.60;;
21084;SDS011;72320;50.082;20.000;2023-12-20T10:33:11;4.40;;;3.10;;
21084;SDS011;72320;50.082;20.000;2023-12-20T10:35:39;2.60;;;2.40;;
21084;SDS011;72320;50.082;20.000;2023-12-20T10:38:07;2.70;;;2.50;;
21084;SDS011;72320;50.082;20.000;2023-12-20T10:40:36;3.00;;;2.60;;
21084;SDS011;72320;50.082;20.000;2023-12-20T10:43:03;3.40;;;2.60;;
21084;SDS011;72320;50.082;20.000;2023-12-20T10:45:30;3.10;;;2.50;;
21084;SDS011;72320;50.082;20.000;2023-12-20T10:47:57;3.40;;;2.80;;
21084;SDS011;72320;50.082;20.000;2023-12-20T10:50:26;5.70;;;3.20;;
21084;SDS011;72320;50.082;20.000;2023-12-20T10:52:55;2.80;;;2.40;;
21084;SDS011;72320;50.082;20.000;2023-12-20T10:55:25;3.70;;;2.80;;
21084;SDS011;72320;50.082;20.000;2023-12-20T10:57:51;2.90;;;2.50;;
21084;SDS011;72320;50.082;20.000;2023-12-20T11:00:18;3.30;;;2.40;;
21084;SDS011;72320;50.082;20.000;2023-12-20T11:02:49;3.10;;;2.70;;
21084;SDS011;72320;50.082;20.000;2023-12-20T11:08:04;3.10;;;2.70;;
21084;SDS011;72320;50.082;20.000;2023-12-20T11:10:51;2.90;;;2.60;;
21084;SDS011;72320;50.082;20.000;2023-12-20T11:13:35;2.60;;;2.40;;
21084;SDS011;72320;50.082;20.000;2023-12-20T11:16:06;3.30;;;2.50;;
21084;SDS011;72320;50.082;20.000;2023-12-20T11:18:33;3.00;;;2.50;;
21084;SDS011;72320;50.082;20.000;2023-12-20T11:21:04;4.60;;;2.30;;
21084;SDS011;72320;50.082;20.000;2023-12-20T11:23:32;5.50;;;2.40;;
21084;SDS011;72320;50.082;20.000;2023-12-20T11:26:02;3.90;;;2.60;;
21084;SDS011;72320;50.082;20.000;2023-12-20T11:28:29;3.80;;;2.40;;
21084;SDS011;72320;50.082;20.000;2023-12-20T11:30:57;4.60;;;2.40;;
21084;SDS011;72320;50.082;20.000;2023-12-20T11:33:29;4.00;;;2.60;;
21084;SDS011;72320;50.082;20.000;2023-12-20T11:35:57;3.10;;;2.50;;
21084;SDS011;72320;50.082;20.000;2023-12-20T11:38:38;4.10;;;2.80;;
21084;SDS011;72320;50.082;20.000;2023-12-20T11:41:22;2.60;;;2.40;;
21084;SDS011;72320;50.082;20.000;2023-12-20T11:43:55;2.60;;;2.30;;
21084;SDS011;72320;50.082;20.000;2023-12-20T11:46:22;2.90;;;2.60;;
21084;SDS011;72320;50.082;20.000;2023-12-20T11:48:48;3.20;;;2.70;;
21084;SDS011;72320;50.082;20.000;2023-12-20T11:51:14;3.00;;;2.60;;
21084;SDS011;72320;50.082;20.000;2023-12-20T11:53:41;4.50;;;2.60;;
21084;SDS011;72320;50.082;20.000;2023-12-20T11:56:10;3.60;;;2.60;;
21084;SDS011;72320;50.082;20.000;2023-12-20T11:58:36;2.40;;;2.20;;
21084;SDS011;72320;50.082;20.000;2023-12-20T12:01:02;2.30;;;2.10;;
21084;SDS011;72320;50.082;20.000;2023-12-20T12:03:30;2.80;;;2.50;;
21084;SDS011;72320;50.082;20.000;2023-12-20T12:05:57;3.30;;;2.50;;
21084;SDS011;72320;50.082;20.000;2023-12-20T12:08:23;4.30;;;2.50;;
21084;SDS011;72320;50.082;20.000;2023-12-20T12:10:49;3.20;;;2.60;;
21084;SDS011;72320;50.082;20.000;2023-12-20T12:13:15;2.80;;;2.20;;
21084;SDS011;72320;50.082;20.000;2023-12-20T12:15:42;3.90;;;2.60;;
21084;SDS011;72320;50.082;20.000;2023-12-20T12:18:08;2.10;;;2.00;;
21084;SDS011;72320;50.082;20.000;2023-12-20T12:20:37;2.90;;;2.30;;
21084;SDS011;72320;50.082;20.000;2023-12-20T12:23:04;3.40;;;2.20;;
21084;SDS011;72320;50.082;20.000;2023-12-20T12:25:34;2.60;;;2.40;;
21084;SDS011;72320;50.082;20.000;2023-12-20T12:28:02;2.90;;;2.60;;
21084;SDS011;72320;50.082;20.000;2023-12-20T12:30:28;3.20;;;2.00;;
21084;SDS011;72320;50.082;20.000;2023-12-20T12:32:55;2.70;;;2.50;;
21084;SDS011;72320;50.082;20.000;2023-12-20T12:35:22;2.80;;;2.30;;
21084;SDS011;72320;50.082;20.000;2023-12-20T12:40:36;2.90;;;2.20;;
21084;SDS011;72320;50.082;20.000;2023-12-20T12:43:03;2.90;;;2.10;;
21084;SDS011;72320;50.082;20.000;2023-12-20T12:45:29;3.00;;;2.50;;
21084;SDS011;72320;50.082;20.000;2023-12-20T12:47:55;3.30;;;2.30;;
21084;SDS011;72320;50.082;20.000;2023-12-20T12:50:21;4.60;;;2.70;;
21084;SDS011;72320;50.082;20.000;2023-12-20T12:52:47;3.80;;;3.00;;
21084;SDS011;72320;50.082;20.000;2023-12-20T12:55:13;2.50;;;2.30;;
21084;SDS011;72320;50.082;20.000;2023-12-20T12:57:40;2.80;;;2.40;;
21084;SDS011;72320;50.082;20.000;2023-12-20T13:00:06;3.70;;;2.70;;
21084;SDS011;72320;50.082;20.000;2023-12-20T13:02:34;2.50;;;2.30;;
21084;SDS011;72320;50.082;20.000;2023-12-20T13:05:01;3.30;;;2.70;;
21084;SDS011;72320;50.082;20.000;2023-12-20T13:07:28;2.70;;;2.40;;
21084;SDS011;72320;50.082;20.000;2023-12-20T13:09:54;3.40;;;2.20;;
21084;SDS011;72320;50.082;20.000;2023-12-20T13:12:20;2.70;;;2.20;;
21084;SDS011;72320;50.082;20.000;2023-12-20T13:14:47;2.40;;;2.10;;
21084;SDS011;72320;50.082;20.000;2023-12-20T13:17:13;2.70;;;2.50;;
21084;SDS011;72320;50.082;20.000;2023-12-20T13:19:39;2.40;;;2.00;;
21084;SDS011;72320;50.082;20.000;2023-12-20T13:22:05;2.30;;;2.10;;
21084;SDS011;72320;50.082;20.000;2023-12-20T13:24:31;2.30;;;2.00;;
21084;SDS011;72320;50.082;20.000;2023-12-20T13:26:57;2.30;;;2.10;;
21084;SDS011;72320;50.082;20.000;2023-12-20T13:29:24;2.80;;;2.60;;
21084;SDS011;72320;50.082;20.000;2023-12-20T13:31:52;3.90;;;2.70;;
21084;SDS011;72320;50.082;20.000;2023-12-20T13:34:19;2.30;;;2.10;;
21084;SDS011;72320;50.082;20.000;2023-12-20T13:36:45;5.00;;;2.70;;
21084;SDS011;72320;50.082;20.000;2023-12-20T13:39:13;3.90;;;3.00;;
21084;SDS011;72320;50.082;20.000;2023-12-20T13:41:39;2.60;;;2.40;;
21084;SDS011;72320;50.082;20.000;2023-12-20T13:44:05;2.60;;;2.40;;
21084;SDS011;72320;50.082;20.000;2023-12-20T13:46:31;4.00;;;2.70;;
21084;SDS011;72320;50.082;20.000;2023-12-20T13:48:58;5.60;;;3.00;;
21084;SDS011;72320;50.082;20.000;2023-12-20T13:51:24;2.90;;;2.70;;
21084;SDS011;72320;50.082;20.000;2023-12-20T13:53:50;4.90;;;2.70;;
21084;SDS011;72320;50.082;20.000;2023-12-20T13:56:16;5.40;;;2.60;;
21084;SDS011;72320;50.082;20.000;2023-12-20T13:58:42;3.20;;;2.70;;
21084;SDS011;72320;50.082;20.000;2023-12-20T14:01:10;4.80;;;3.30;;
21084;SDS011;72320;50.082;20.000;2023-12-20T14:03:37;2.80;;;2.50;;
21084;SDS011;72320;50.082;20.000;2023-12-20T14:06:03;3.70;;;3.00;;
21084;SDS011;72320;50.082;20.000;2023-12-20T14:08:29;3.70;;;2.90;;
21084;SDS011;72320;50.082;20.000;2023-12-20T14:10:56;2.90;;;2.40;;
21084;SDS011;72320;50.082;20.000;2023-12-20T14:13:21;3.90;;;3.20;;
21084;SDS011;72320;50.082;20.000;2023-12-20T14:15:47;4.40;;;3.10;;
21084;SDS011;72320;50.082;20.000;2023-12-20T14:18:15;2.80;;;2.50;;
21084;SDS011;72320;50.082;20.000;2023-12-20T14:20:41;2.90;;;2.40;;
21084;SDS011;72320;50.082;20.000;2023-12-20T14:23:11;3.10;;;2.60;;
21084;SDS011;72320;50.082;20.000;2023-12-20T14:25:37;3.30;;;2.60;;
21084;SDS011;72320;50.082;20.000;2023-12-20T14:28:04;4.10;;;2.90;;
21084;SDS011;72320;50.082;20.000;2023-12-20T14:30:30;2.70;;;2.30;;
21084;SDS011;72320;50.082;20.000;2023-12-20T14:32:56;3.90;;;2.60;;
21084;SDS011;72320;50.082;20.000;2023-12-20T14:35:22;4.00;;;2.60;;
21084;SDS011;72320;50.082;20.000;2023-12-20T14:37:48;4.80;;;2.40;;
21084;SDS011;72320;50.082;20.000;2023-12-20T14:40:15;3.30;;;2.60;;
21084;SDS011;72320;50.082;20.000;2023-12-20T14:42:45;2.60;;;2.30;;
21084;SDS011;72320;50.082;20.000;2023-12-20T14:45:12;2.30;;;2.20;;
21084;SDS011;72320;50.082;20.000;2023-12-20T14:47:40;4.30;;;2.70;;
21084;SDS011;72320;50.082;20.000;2023-12-20T14:50:06;3.00;;;2.30;;
21084;SDS011;72320;50.082;20.000;2023-12-20T14:52:33;4.10;;;2.80;;
21084;SDS011;72320;50.082;20.000;2023-12-20T14:55:00;5.80;;;2.70;;
21084;SDS011;72320;50.082;20.000;2023-12-20T14:57:30;6.20;;;3.10;;
21084;SDS011;72320;50.082;20.000;2023-12-20T14:59:56;3.70;;;2.60;;
21084;SDS011;72320;50.082;20.000;2023-12-20T15:02:22;3.20;;;2.50;;
21084;SDS011;72320;50.082;20.000;2023-12-20T15:04:48;2.70;;;2.40;;
21084;SDS011;72320;50.082;20.000;2023-12-20T15:07:16;4.40;;;2.60;;
21084;SDS011;72320;50.082;20.000;2023-12-20T15:09:43;2.90;;;2.70;;
21084;SDS011;72320;50.082;20.000;2023-12-20T15:12:13;3.20;;;2.60;;
21084;SDS011;72320;50.082;20.000;2023-12-20T15:14:39;3.60;;;3.20;;
21084;SDS011;72320;50.082;20.000;2023-12-20T15:17:05;7.10;;;3.10;;
21084;SDS011;72320;50.082;20.000;2023-12-20T15:19:31;3.60;;;2.60;;
21084;SDS011;72320;50.082;20.000;2023-12-20T15:21:57;4.00;;;2.70;;
21084;SDS011;72320;50.082;20.000;2023-12-20T15:24:25;3.00;;;2.30;;
21084;SDS011;72320;50.082;20.000;2023-12-20T15:27:06;3.80;;;2.90;;
21084;SDS011;72320;50.082;20.000;2023-12-20T15:29:33;3.30;;;3.00;;
21084;SDS011;72320;50.082;20.000;2023-12-20T15:31:59;3.50;;;2.90;;